createdAt,value
2022-09-24T00:00:06.565Z,10.33
2022-09-24T00:01:06.583Z,10.38
2022-09-24T00:02:06.709Z,10.33
2022-09-24T00:03:06.645Z,10.40
2022-09-24T00:04:06.736Z,10.36
2022-09-24T00:05:06.647Z,10.34
2022-09-24T00:06:06.650Z,10.25
2022-09-24T00:07:06.663Z,10.36
2022-09-24T00:08:06.667Z,10.30
2022-09-24T00:09:06.788Z,10.41
2022-09-24T00:10:06.695Z,10.32
2022-09-24T00:11:06.708Z,10.36
2022-09-24T00:12:06.739Z,10.33
2022-09-24T00:13:06.731Z,10.34
2022-09-24T00:14:06.866Z,10.34
2022-09-24T00:15:06.760Z,10.32
2022-09-24T00:16:06.817Z,10.30
2022-09-24T00:17:06.784Z,10.40
2022-09-24T00:18:06.797Z,10.30
2022-09-24T00:19:06.807Z,10.32
2022-09-24T00:20:06.821Z,10.40
2022-09-24T00:21:06.833Z,10.27
2022-09-24T00:22:06.843Z,10.33
2022-09-24T00:23:06.865Z,10.33
2022-09-24T00:24:06.930Z,10.33
2022-09-24T00:25:06.887Z,10.33
2022-09-24T00:26:06.895Z,10.30
2022-09-24T00:27:06.910Z,10.34
2022-09-24T00:28:06.965Z,10.34
2022-09-24T00:29:06.946Z,10.36
2022-09-24T00:30:06.948Z,10.32
2022-09-24T00:31:07.196Z,10.25
2022-09-24T00:32:06.971Z,10.30
2022-09-24T00:33:06.987Z,10.27
2022-09-24T00:34:07.110Z,10.22
2022-09-24T00:35:07.010Z,10.15
2022-09-24T00:36:07.023Z,10.20
2022-09-24T00:37:07.034Z,10.26
2022-09-24T00:38:07.047Z,10.12
2022-09-24T00:39:07.060Z,10.05
2022-09-24T00:40:07.199Z,10.02
2022-09-24T00:41:07.083Z,9.87
2022-09-24T00:42:07.097Z,9.93
2022-09-24T00:43:07.111Z,9.94
2022-09-24T00:44:07.237Z,9.89
2022-09-24T00:45:07.138Z,9.84
2022-09-24T00:46:07.149Z,9.87
2022-09-24T00:47:07.194Z,9.90
2022-09-24T00:48:07.174Z,9.90
2022-09-24T00:49:07.182Z,9.86
2022-09-24T00:50:07.200Z,9.90
2022-09-24T00:51:07.209Z,9.97
2022-09-24T00:52:07.223Z,9.89
2022-09-24T00:53:07.235Z,9.89
2022-09-24T00:54:07.327Z,9.86
2022-09-24T00:55:07.259Z,9.96
2022-09-24T00:56:07.271Z,9.87
2022-09-24T00:57:07.293Z,9.86
2022-09-24T00:58:07.301Z,9.86
2022-09-24T00:59:07.307Z,10.01
2022-09-24T01:00:07.344Z,9.90
2022-09-24T01:01:07.444Z,9.99
2022-09-24T01:02:07.398Z,9.97
2022-09-24T01:03:07.362Z,9.99
2022-09-24T01:04:07.516Z,9.97
2022-09-24T01:05:07.383Z,9.99
2022-09-24T01:06:07.398Z,10.07
2022-09-24T01:07:07.414Z,10.05
2022-09-24T01:08:07.425Z,10.04
2022-09-24T01:09:07.430Z,10.01
2022-09-24T01:10:07.442Z,10.08
2022-09-24T01:11:07.458Z,9.99
2022-09-24T01:12:07.473Z,10.08
2022-09-24T01:13:07.480Z,10.07
2022-09-24T01:14:07.596Z,10.04
2022-09-24T01:15:07.509Z,10.01
2022-09-24T01:16:07.637Z,10.11
2022-09-24T01:17:07.530Z,10.17
2022-09-24T01:18:07.545Z,10.12
2022-09-24T01:19:07.553Z,10.15
2022-09-24T01:20:07.568Z,10.12
2022-09-24T01:21:07.587Z,10.14
2022-09-24T01:22:07.596Z,10.12
2022-09-24T01:23:07.601Z,10.14
2022-09-24T01:24:07.740Z,10.12
2022-09-24T01:25:07.629Z,10.18
2022-09-24T01:26:07.641Z,10.11
2022-09-24T01:27:07.655Z,10.15
2022-09-24T01:28:07.678Z,10.14
2022-09-24T01:29:07.774Z,10.18
2022-09-24T01:30:07.695Z,10.12
2022-09-24T01:31:07.751Z,10.11
2022-09-24T01:32:07.749Z,10.11
2022-09-24T01:33:07.733Z,10.05
2022-09-24T01:34:07.737Z,10.05
2022-09-24T01:35:07.757Z,9.96
2022-09-24T01:36:07.760Z,9.96
2022-09-24T01:37:07.778Z,9.91
2022-09-24T01:38:07.802Z,9.89
2022-09-24T01:39:07.795Z,9.89
2022-09-24T01:40:07.939Z,9.94
2022-09-24T01:41:07.823Z,9.91
2022-09-24T01:42:07.848Z,9.97
2022-09-24T01:43:07.847Z,9.96
2022-09-24T01:44:07.970Z,9.99
2022-09-24T01:45:07.873Z,9.96
2022-09-24T01:46:07.991Z,9.99
2022-09-24T01:47:07.896Z,9.96
2022-09-24T01:48:07.946Z,9.96
2022-09-24T01:49:07.922Z,9.96
2022-09-24T01:50:07.934Z,9.97
2022-09-24T01:51:07.950Z,9.99
2022-09-24T01:52:07.958Z,10.05
2022-09-24T01:53:07.972Z,10.05
2022-09-24T01:54:08.134Z,10.01
2022-09-24T01:55:07.995Z,10.01
2022-09-24T01:56:08.010Z,10.02
2022-09-24T01:57:08.029Z,10.07
2022-09-24T01:58:08.044Z,10.01
2022-09-24T01:59:08.053Z,10.01
2022-09-24T02:00:08.073Z,10.01
2022-09-24T02:01:08.232Z,10.14
2022-09-24T02:02:08.157Z,10.14
2022-09-24T02:03:08.094Z,10.11
2022-09-24T02:04:08.236Z,10.15
2022-09-24T02:05:08.127Z,10.11
2022-09-24T02:06:08.150Z,10.09
2022-09-24T02:07:08.138Z,10.14
2022-09-24T02:08:08.158Z,10.08
2022-09-24T02:09:08.163Z,10.08
2022-09-24T02:10:08.183Z,10.08
2022-09-24T02:11:08.294Z,10.09
2022-09-24T02:12:08.206Z,10.14
2022-09-24T02:13:08.217Z,10.15
2022-09-24T02:14:08.343Z,10.20
2022-09-24T02:15:08.238Z,10.17
2022-09-24T02:16:08.309Z,10.14
2022-09-24T02:17:08.263Z,10.08
2022-09-24T02:18:08.280Z,10.14
2022-09-24T02:19:08.290Z,10.12
2022-09-24T02:20:08.323Z,10.15
2022-09-24T02:21:08.312Z,10.17
2022-09-24T02:22:08.327Z,10.14
2022-09-24T02:23:08.356Z,10.07
2022-09-24T02:24:08.415Z,10.07
2022-09-24T02:25:08.362Z,10.11
2022-09-24T02:26:08.374Z,9.96
2022-09-24T02:27:08.388Z,9.99
2022-09-24T02:28:08.414Z,10.01
2022-09-24T02:29:08.409Z,10.07
2022-09-24T02:30:08.423Z,10.08
2022-09-24T02:31:08.490Z,9.97
2022-09-24T02:32:08.453Z,9.86
2022-09-24T02:33:08.463Z,9.65
2022-09-24T02:34:08.529Z,9.39
2022-09-24T02:35:08.486Z,9.26
2022-09-24T02:36:08.627Z,9.18
2022-09-24T02:37:08.516Z,9.13
2022-09-24T02:38:08.523Z,9.21
2022-09-24T02:39:08.539Z,9.23
2022-09-24T02:40:08.619Z,9.24
2022-09-24T02:41:08.561Z,9.29
2022-09-24T02:42:08.571Z,9.23
2022-09-24T02:43:08.584Z,9.32
2022-09-24T02:44:08.662Z,9.40
2022-09-24T02:45:08.613Z,9.40
2022-09-24T02:46:08.644Z,9.46
2022-09-24T02:47:08.728Z,9.51
2022-09-24T02:48:08.645Z,9.53
2022-09-24T02:49:08.656Z,9.65
2022-09-24T02:50:08.672Z,9.65
2022-09-24T02:51:08.676Z,9.65
2022-09-24T02:52:08.719Z,9.61
2022-09-24T02:53:08.703Z,9.64
2022-09-24T02:54:08.766Z,9.74
2022-09-24T02:55:08.732Z,9.74
2022-09-24T02:56:08.739Z,9.71
2022-09-24T02:57:08.751Z,9.75
2022-09-24T02:58:08.764Z,9.75
2022-09-24T02:59:08.776Z,9.84
2022-09-24T03:00:08.813Z,9.87
2022-09-24T03:01:08.801Z,9.84
2022-09-24T03:02:08.934Z,9.94
2022-09-24T03:03:08.905Z,9.91
2022-09-24T03:04:08.890Z,9.90
2022-09-24T03:05:08.857Z,9.90
2022-09-24T03:06:08.860Z,9.93
2022-09-24T03:07:08.873Z,9.96
2022-09-24T03:08:08.939Z,9.94
2022-09-24T03:09:08.896Z,9.87
2022-09-24T03:10:08.915Z,9.84
2022-09-24T03:11:08.920Z,9.74
2022-09-24T03:12:08.940Z,9.79
2022-09-24T03:13:08.946Z,9.71
2022-09-24T03:14:09.090Z,9.66
2022-09-24T03:15:08.975Z,9.68
2022-09-24T03:16:09.076Z,9.65
2022-09-24T03:17:08.997Z,9.64
2022-09-24T03:18:09.008Z,9.64
2022-09-24T03:19:09.028Z,9.66
2022-09-24T03:20:09.038Z,9.66
2022-09-24T03:21:09.045Z,9.58
2022-09-24T03:22:09.057Z,9.68
2022-09-24T03:23:09.065Z,9.66
2022-09-24T03:24:09.192Z,9.68
2022-09-24T03:25:09.089Z,9.65
2022-09-24T03:26:09.104Z,9.60
2022-09-24T03:27:09.118Z,9.66
2022-09-24T03:28:09.131Z,9.53
2022-09-24T03:29:09.141Z,9.50
2022-09-24T03:30:09.156Z,9.50
2022-09-24T03:31:09.307Z,9.43
2022-09-24T03:32:09.278Z,9.36
2022-09-24T03:33:09.200Z,9.42
2022-09-24T03:34:09.250Z,9.42
2022-09-24T03:35:09.221Z,9.48
2022-09-24T03:36:09.234Z,9.46
2022-09-24T03:37:09.238Z,9.48
2022-09-24T03:38:09.272Z,9.48
2022-09-24T03:39:09.262Z,9.54
2022-09-24T03:40:09.407Z,9.48
2022-09-24T03:41:09.290Z,9.53
2022-09-24T03:42:09.295Z,9.54
2022-09-24T03:43:09.307Z,9.53
2022-09-24T03:44:09.422Z,9.51
2022-09-24T03:45:09.337Z,9.54
2022-09-24T03:46:09.436Z,9.64
2022-09-24T03:47:09.356Z,9.50
2022-09-24T03:48:09.368Z,9.53
2022-09-24T03:49:09.382Z,9.51
2022-09-24T03:50:09.389Z,9.56
2022-09-24T03:51:09.407Z,9.50
2022-09-24T03:52:09.414Z,9.51
2022-09-24T03:53:09.429Z,9.48
2022-09-24T03:54:09.439Z,9.50
2022-09-24T03:55:09.450Z,9.51
2022-09-24T03:56:09.491Z,9.46
2022-09-24T03:57:09.474Z,9.26
2022-09-24T03:58:09.491Z,9.23
2022-09-24T03:59:09.495Z,9.24
2022-09-24T04:00:09.509Z,9.18
2022-09-24T04:01:09.523Z,9.14
2022-09-24T04:02:09.582Z,9.17
2022-09-24T04:03:09.654Z,9.13
2022-09-24T04:04:09.663Z,9.15
2022-09-24T04:05:09.569Z,9.15
2022-09-24T04:06:09.581Z,9.17
2022-09-24T04:07:09.702Z,9.17
2022-09-24T04:08:09.602Z,9.17
2022-09-24T04:09:09.614Z,9.14
2022-09-24T04:10:09.629Z,9.15
2022-09-24T04:11:09.638Z,9.15
2022-09-24T04:12:09.678Z,9.20
2022-09-24T04:13:09.663Z,9.20
2022-09-24T04:14:09.728Z,9.17
2022-09-24T04:15:09.686Z,9.15
2022-09-24T04:16:09.802Z,9.14
2022-09-24T04:17:09.713Z,9.15
2022-09-24T04:18:09.719Z,9.08
2022-09-24T04:19:09.735Z,9.04
2022-09-24T04:20:09.741Z,9.10
2022-09-24T04:21:09.759Z,8.96
2022-09-24T04:22:09.775Z,8.98
2022-09-24T04:23:09.778Z,8.98
2022-09-24T04:24:09.794Z,9.02
2022-09-24T04:25:14.559Z,9.04
2022-09-24T04:26:09.817Z,8.98
2022-09-24T04:27:09.878Z,9.08
2022-09-24T04:28:09.871Z,9.08
2022-09-24T04:29:09.854Z,9.04
2022-09-24T04:30:09.871Z,9.14
2022-09-24T04:31:10.050Z,9.18
2022-09-24T04:32:09.884Z,9.15
2022-09-24T04:33:09.902Z,9.18
2022-09-24T04:34:09.909Z,9.17
2022-09-24T04:35:09.918Z,9.15
2022-09-24T04:36:09.930Z,9.20
2022-09-24T04:37:09.942Z,9.24
2022-09-24T04:38:09.957Z,9.20
2022-09-24T04:39:09.964Z,9.23
2022-09-24T04:40:10.049Z,9.23
2022-09-24T04:41:09.992Z,9.23
2022-09-24T04:42:09.997Z,9.29
2022-09-24T04:43:10.015Z,9.21
2022-09-24T04:44:10.055Z,9.21
2022-09-24T04:45:10.039Z,9.28
2022-09-24T04:46:10.114Z,9.33
2022-09-24T04:47:10.157Z,9.32
2022-09-24T04:48:10.069Z,9.24
2022-09-24T04:49:10.080Z,9.26
2022-09-24T04:50:10.097Z,9.31
2022-09-24T04:51:10.102Z,9.21
2022-09-24T04:52:10.118Z,9.24
2022-09-24T04:53:10.132Z,9.23
2022-09-24T04:54:10.144Z,9.18
2022-09-24T04:55:10.156Z,9.26
2022-09-24T04:56:10.162Z,9.23
2022-09-24T04:57:10.173Z,9.23
2022-09-24T04:58:10.192Z,9.32
2022-09-24T04:59:10.207Z,9.18
2022-09-24T05:00:10.240Z,9.28
2022-09-24T05:01:10.221Z,9.28
2022-09-24T05:02:10.360Z,9.29
2022-09-24T05:03:10.327Z,9.23
2022-09-24T05:04:10.260Z,9.23
2022-09-24T05:05:10.272Z,9.31
2022-09-24T05:06:10.282Z,9.32
2022-09-24T05:07:10.295Z,9.24
2022-09-24T05:08:10.340Z,9.32
2022-09-24T05:09:12.629Z,9.23
2022-09-24T05:10:10.331Z,9.24
2022-09-24T05:11:10.360Z,9.29
2022-09-24T05:12:10.355Z,9.24
2022-09-24T05:13:10.385Z,9.21
2022-09-24T05:14:10.374Z,9.23
2022-09-24T05:15:10.399Z,9.14
2022-09-24T05:16:10.481Z,9.17
2022-09-24T05:17:10.408Z,9.10
2022-09-24T05:18:10.431Z,9.10
2022-09-24T05:19:10.459Z,8.95
2022-09-24T05:20:10.448Z,8.99
2022-09-24T05:21:10.453Z,8.99
2022-09-24T05:22:10.465Z,9.02
2022-09-24T05:23:10.482Z,9.04
2022-09-24T05:24:10.487Z,9.04
2022-09-24T05:25:10.504Z,8.94
2022-09-24T05:26:10.518Z,8.94
2022-09-24T05:27:10.723Z,9.02
2022-09-24T05:28:10.535Z,8.99
2022-09-24T05:29:10.654Z,8.99
2022-09-24T05:30:10.557Z,8.95
2022-09-24T05:31:10.717Z,8.98
2022-09-24T05:32:10.608Z,9.01
2022-09-24T05:33:10.593Z,9.04
2022-09-24T05:34:10.608Z,9.04
2022-09-24T05:35:10.618Z,9.08
2022-09-24T05:36:10.730Z,9.10
2022-09-24T05:37:10.641Z,9.11
2022-09-24T05:38:10.662Z,9.05
2022-09-24T05:39:10.664Z,9.01
2022-09-24T05:40:10.714Z,8.84
2022-09-24T05:41:10.689Z,8.68
2022-09-24T05:42:10.702Z,8.80
2022-09-24T05:43:10.708Z,8.73
2022-09-24T05:44:10.723Z,8.79
2022-09-24T05:45:10.740Z,8.73
2022-09-24T05:46:10.792Z,8.71
2022-09-24T05:47:10.759Z,8.71
2022-09-24T05:48:10.793Z,8.74
2022-09-24T05:49:10.892Z,8.74
2022-09-24T05:50:10.794Z,8.74
2022-09-24T05:51:10.907Z,8.73
2022-09-24T05:52:10.813Z,8.66
2022-09-24T05:53:10.825Z,8.77
2022-09-24T05:54:10.842Z,8.76
2022-09-24T05:55:10.845Z,8.74
2022-09-24T05:56:10.860Z,8.80
2022-09-24T05:57:10.874Z,8.77
2022-09-24T05:58:10.889Z,8.87
2022-09-24T05:59:11.031Z,8.76
2022-09-24T06:00:10.907Z,8.77
2022-09-24T06:01:10.920Z,8.84
2022-09-24T06:02:11.139Z,8.77
2022-09-24T06:03:11.090Z,8.80
2022-09-24T06:04:10.979Z,8.79
2022-09-24T06:05:10.968Z,8.95
2022-09-24T06:06:10.977Z,8.76
2022-09-24T06:07:10.989Z,8.76
2022-09-24T06:08:11.002Z,8.71
2022-09-24T06:09:11.143Z,8.63
2022-09-24T06:10:11.023Z,8.70
2022-09-24T06:11:11.040Z,8.63
2022-09-24T06:12:11.053Z,8.61
2022-09-24T06:13:11.059Z,8.63
2022-09-24T06:14:11.082Z,8.66
2022-09-24T06:15:11.089Z,8.62
2022-09-24T06:16:11.178Z,8.59
2022-09-24T06:17:11.103Z,8.61
2022-09-24T06:18:11.114Z,8.66
2022-09-24T06:19:11.226Z,8.73
2022-09-24T06:20:11.162Z,8.71
2022-09-24T06:21:11.147Z,8.66
2022-09-24T06:22:11.163Z,8.81
2022-09-24T06:23:11.178Z,8.66
2022-09-24T06:24:11.183Z,8.76
2022-09-24T06:25:11.198Z,8.80
2022-09-24T06:26:11.205Z,8.71
2022-09-24T06:27:11.217Z,8.71
2022-09-24T06:28:11.225Z,8.76
2022-09-24T06:29:11.260Z,8.84
2022-09-24T06:30:11.250Z,8.91
2022-09-24T06:31:11.298Z,8.80
2022-09-24T06:32:11.279Z,8.81
2022-09-24T06:33:11.284Z,8.87
2022-09-24T06:34:11.302Z,8.83
2022-09-24T06:35:11.307Z,8.84
2022-09-24T06:36:11.427Z,8.96
2022-09-24T06:37:11.330Z,8.91
2022-09-24T06:38:11.341Z,8.81
2022-09-24T06:39:11.392Z,8.74
2022-09-24T06:40:11.396Z,8.59
2022-09-24T06:41:11.379Z,8.53
2022-09-24T06:42:11.387Z,8.38
2022-09-24T06:43:11.399Z,8.44
2022-09-24T06:44:11.412Z,8.40
2022-09-24T06:45:11.422Z,8.41
2022-09-24T06:46:11.493Z,8.48
2022-09-24T06:47:11.446Z,8.50
2022-09-24T06:48:11.456Z,8.56
2022-09-24T06:49:11.577Z,8.62
2022-09-24T06:50:11.480Z,8.59
2022-09-24T06:51:11.495Z,8.65
2022-09-24T06:52:11.523Z,8.66
2022-09-24T06:53:11.513Z,8.70
2022-09-24T06:54:11.522Z,8.73
2022-09-24T06:55:11.538Z,8.76
2022-09-24T06:56:11.646Z,8.73
2022-09-24T06:57:11.557Z,8.80
2022-09-24T06:58:11.572Z,8.84
2022-09-24T06:59:11.659Z,8.76
2022-09-24T07:00:11.591Z,8.81
2022-09-24T07:01:11.616Z,8.80
2022-09-24T07:02:11.761Z,8.91
2022-09-24T07:03:11.624Z,8.83
2022-09-24T07:04:11.637Z,8.81
2022-09-24T07:05:11.645Z,8.86
2022-09-24T07:06:11.662Z,8.83
2022-09-24T07:07:11.669Z,8.86
2022-09-24T07:08:11.718Z,8.91
2022-09-24T07:09:11.751Z,8.79
2022-09-24T07:10:11.710Z,8.81
2022-09-24T07:11:11.714Z,8.83
2022-09-24T07:12:11.731Z,8.89
2022-09-24T07:13:11.740Z,8.84
2022-09-24T07:14:11.752Z,8.79
2022-09-24T07:15:11.760Z,8.83
2022-09-24T07:16:11.930Z,8.91
2022-09-24T07:17:11.786Z,8.89
2022-09-24T07:18:11.800Z,8.81
2022-09-24T07:19:11.873Z,8.79
2022-09-24T07:20:11.821Z,8.87
2022-09-24T07:21:11.880Z,8.84
2022-09-24T07:22:11.847Z,8.80
2022-09-24T07:23:11.859Z,8.95
2022-09-24T07:24:11.892Z,8.80
2022-09-24T07:25:11.880Z,8.83
2022-09-24T07:26:11.888Z,8.83
2022-09-24T07:27:11.900Z,8.84
2022-09-24T07:28:11.914Z,8.87
2022-09-24T07:29:12.024Z,8.83
2022-09-24T07:30:11.933Z,8.81
2022-09-24T07:31:12.010Z,8.84
2022-09-24T07:32:11.952Z,8.80
2022-09-24T07:33:11.974Z,8.81
2022-09-24T07:34:12.156Z,8.80
2022-09-24T07:35:11.986Z,8.84
2022-09-24T07:36:12.006Z,8.86
2022-09-24T07:37:12.012Z,8.84
2022-09-24T07:38:12.092Z,8.80
2022-09-24T07:39:12.034Z,8.92
2022-09-24T07:40:12.232Z,8.94
2022-09-24T07:41:12.062Z,8.89
2022-09-24T07:42:12.070Z,8.92
2022-09-24T07:43:12.078Z,8.92
2022-09-24T07:44:12.219Z,8.81
2022-09-24T07:45:12.102Z,8.79
2022-09-24T07:46:12.157Z,8.76
2022-09-24T07:47:15.367Z,8.84
2022-09-24T07:48:12.135Z,8.76
2022-09-24T07:49:12.149Z,8.73
2022-09-24T07:50:12.168Z,8.71
2022-09-24T07:51:12.172Z,8.63
2022-09-24T07:52:12.186Z,8.56
2022-09-24T07:53:12.200Z,8.55
2022-09-24T07:54:16.912Z,8.56
2022-09-24T07:55:12.215Z,8.62
2022-09-24T07:56:12.251Z,8.62
2022-09-24T07:57:12.239Z,8.59
2022-09-24T07:58:12.248Z,8.62
2022-09-24T07:59:12.364Z,8.62
2022-09-24T08:00:12.274Z,8.45
2022-09-24T08:01:12.335Z,8.58
2022-09-24T08:02:12.361Z,8.62
2022-09-24T08:03:12.305Z,8.58
2022-09-24T08:04:12.542Z,8.62
2022-09-24T08:05:12.335Z,8.59
2022-09-24T08:06:12.343Z,8.61
2022-09-24T08:07:12.350Z,8.55
2022-09-24T08:08:12.361Z,8.68
2022-09-24T08:09:12.373Z,8.63
2022-09-24T08:10:12.396Z,8.73
2022-09-24T08:11:12.397Z,8.66
2022-09-24T08:12:12.435Z,8.70
2022-09-24T08:13:12.428Z,8.76
2022-09-24T08:14:12.437Z,8.81
2022-09-24T08:15:12.440Z,8.81
2022-09-24T08:16:12.492Z,8.92
2022-09-24T08:17:12.463Z,8.84
2022-09-24T08:18:12.478Z,8.91
2022-09-24T08:19:12.485Z,8.94
2022-09-24T08:20:12.501Z,8.99
2022-09-24T08:21:12.518Z,8.99
2022-09-24T08:22:12.518Z,8.98
2022-09-24T08:23:12.530Z,8.77
2022-09-24T08:24:12.551Z,8.79
2022-09-24T08:25:12.563Z,8.76
2022-09-24T08:26:12.563Z,8.68
2022-09-24T08:27:17.058Z,8.66
2022-09-24T08:28:12.608Z,8.58
2022-09-24T08:29:12.597Z,8.47
2022-09-24T08:30:12.637Z,8.48
2022-09-24T08:31:12.731Z,8.62
2022-09-24T08:32:12.637Z,8.59
2022-09-24T08:33:12.642Z,8.62
2022-09-24T08:34:12.656Z,8.61
2022-09-24T08:35:12.672Z,8.63
2022-09-24T08:36:12.673Z,8.61
2022-09-24T08:37:12.684Z,8.66
2022-09-24T08:38:12.699Z,8.70
2022-09-24T08:39:12.708Z,8.65
2022-09-24T08:40:12.790Z,8.68
2022-09-24T08:41:12.729Z,8.71
2022-09-24T08:42:12.746Z,8.70
2022-09-24T08:43:12.751Z,8.89
2022-09-24T08:44:12.785Z,8.80
2022-09-24T08:45:12.776Z,8.80
2022-09-24T08:46:12.817Z,8.83
2022-09-24T08:47:12.798Z,8.86
2022-09-24T08:48:12.806Z,9.01
2022-09-24T08:49:12.821Z,9.01
2022-09-24T08:50:12.834Z,9.02
2022-09-24T08:51:12.842Z,8.94
2022-09-24T08:52:12.857Z,8.96
2022-09-24T08:53:12.863Z,8.81
2022-09-24T08:54:12.880Z,8.76
2022-09-24T08:55:12.900Z,8.62
2022-09-24T08:56:12.899Z,8.47
2022-09-24T08:57:12.911Z,8.45
2022-09-24T08:58:12.919Z,8.37
2022-09-24T08:59:12.929Z,8.33
2022-09-24T09:00:12.963Z,8.28
2022-09-24T09:01:13.125Z,8.38
2022-09-24T09:02:13.185Z,8.43
2022-09-24T09:03:13.019Z,8.40
2022-09-24T09:04:12.987Z,8.41
2022-09-24T09:05:12.998Z,8.40
2022-09-24T09:06:13.010Z,8.26
2022-09-24T09:07:13.022Z,8.23
2022-09-24T09:08:41.483Z,8.40
2022-09-24T09:09:13.152Z,8.43
2022-09-24T09:10:13.057Z,8.47
2022-09-24T09:11:13.079Z,8.55
2022-09-24T09:12:13.088Z,8.56
2022-09-24T09:13:13.091Z,8.61
2022-09-24T09:14:13.100Z,8.73
2022-09-24T09:15:13.116Z,8.73
2022-09-24T09:16:13.246Z,8.65
2022-09-24T09:17:13.133Z,8.47
2022-09-24T09:18:13.141Z,8.52
2022-09-24T09:19:13.153Z,8.61
2022-09-24T09:20:13.169Z,8.59
2022-09-24T09:21:13.175Z,8.61
2022-09-24T09:22:13.188Z,8.59
2022-09-24T09:23:13.197Z,8.65
2022-09-24T09:24:13.209Z,8.76
2022-09-24T09:25:13.219Z,8.65
2022-09-24T09:26:13.233Z,8.59
2022-09-24T09:27:13.269Z,8.62
2022-09-24T09:28:13.258Z,8.61
2022-09-24T09:29:13.262Z,8.63
2022-09-24T09:30:14.364Z,8.59
2022-09-24T09:31:13.338Z,8.68
2022-09-24T09:32:13.405Z,8.59
2022-09-24T09:33:13.307Z,8.63
2022-09-24T09:34:13.318Z,8.59
2022-09-24T09:35:13.326Z,8.66
2022-09-24T09:36:13.342Z,8.43
2022-09-24T09:37:13.356Z,8.48
2022-09-24T09:38:13.361Z,8.58
2022-09-24T09:39:13.371Z,8.58
2022-09-24T09:40:13.456Z,8.33
2022-09-24T09:41:13.397Z,8.20
2022-09-24T09:42:13.404Z,8.26
2022-09-24T09:43:13.416Z,8.25
2022-09-24T09:44:13.430Z,7.89
2022-09-24T09:45:13.440Z,8.00
2022-09-24T09:46:13.496Z,8.15
2022-09-24T09:47:13.459Z,8.30
2022-09-24T09:48:13.499Z,8.37
2022-09-24T09:49:13.480Z,8.44
2022-09-24T09:50:13.505Z,8.55
2022-09-24T09:51:13.505Z,8.58
2022-09-24T09:52:13.513Z,8.37
2022-09-24T09:53:13.537Z,8.45
2022-09-24T09:54:13.539Z,8.56
2022-09-24T09:55:13.549Z,8.58
2022-09-24T09:56:13.559Z,8.55
2022-09-24T09:57:13.569Z,8.55
2022-09-24T09:58:13.582Z,8.61
2022-09-24T09:59:13.590Z,8.65
2022-09-24T10:00:13.602Z,8.73
2022-09-24T10:01:13.617Z,8.66
2022-09-24T10:02:13.782Z,8.61
2022-09-24T10:03:13.765Z,8.56
2022-09-24T10:04:13.689Z,8.59
2022-09-24T10:05:17.880Z,8.65
2022-09-24T10:06:13.678Z,8.58
2022-09-24T10:07:13.680Z,8.40
2022-09-24T10:08:13.691Z,8.25
2022-09-24T10:09:13.707Z,8.43
2022-09-24T10:10:13.711Z,8.40
2022-09-24T10:11:13.724Z,8.43
2022-09-24T10:12:13.735Z,8.61
2022-09-24T10:13:13.744Z,8.70
2022-09-24T10:14:13.753Z,8.80
2022-09-24T10:15:13.765Z,8.77
2022-09-24T10:16:13.895Z,8.87
2022-09-24T10:17:13.785Z,8.61
2022-09-24T10:18:13.799Z,8.73
2022-09-24T10:19:13.812Z,8.77
2022-09-24T10:20:13.847Z,8.86
2022-09-24T10:21:13.841Z,8.95
2022-09-24T10:22:13.844Z,8.79
2022-09-24T10:23:13.856Z,8.83
2022-09-24T10:24:13.864Z,8.92
2022-09-24T10:25:13.886Z,8.81
2022-09-24T10:26:13.952Z,8.76
2022-09-24T10:27:13.899Z,8.43
2022-09-24T10:28:13.909Z,8.19
2022-09-24T10:29:13.919Z,8.52
2022-09-24T10:30:14.039Z,8.52
2022-09-24T10:31:14.003Z,8.62
2022-09-24T10:32:13.950Z,8.50
2022-09-24T10:33:13.965Z,8.62
2022-09-24T10:34:13.976Z,8.71
2022-09-24T10:35:13.986Z,8.80
2022-09-24T10:36:14.019Z,8.79
2022-09-24T10:37:14.008Z,8.83
2022-09-24T10:38:14.020Z,8.61
2022-09-24T10:39:14.024Z,8.38
2022-09-24T10:40:14.253Z,8.40
2022-09-24T10:41:14.050Z,8.58
2022-09-24T10:42:14.060Z,8.58
2022-09-24T10:43:14.070Z,8.56
2022-09-24T10:44:14.084Z,8.20
2022-09-24T10:45:14.145Z,8.30
2022-09-24T10:46:14.169Z,8.34
2022-09-24T10:47:14.118Z,8.62
2022-09-24T10:48:14.128Z,8.58
2022-09-24T10:49:14.143Z,8.76
2022-09-24T10:50:14.152Z,8.76
2022-09-24T10:51:14.161Z,8.55
2022-09-24T10:52:14.201Z,8.56
2022-09-24T10:53:14.182Z,8.55
2022-09-24T10:54:14.192Z,8.56
2022-09-24T10:55:14.201Z,8.68
2022-09-24T10:56:14.213Z,8.61
2022-09-24T10:57:14.223Z,8.37
2022-09-24T10:58:14.241Z,8.40
2022-09-24T10:59:14.249Z,8.36
2022-09-24T11:00:14.258Z,8.19
2022-09-24T11:01:14.268Z,8.37
2022-09-24T11:02:14.365Z,8.38
2022-09-24T11:03:14.311Z,8.41
2022-09-24T11:04:14.299Z,8.44
2022-09-24T11:05:14.316Z,8.40
2022-09-24T11:06:14.321Z,8.16
2022-09-24T11:07:14.332Z,8.20
2022-09-24T11:08:14.370Z,8.18
2022-09-24T11:09:14.358Z,8.34
2022-09-24T11:10:14.401Z,8.47
2022-09-24T11:11:14.379Z,8.38
2022-09-24T11:12:14.388Z,8.41
2022-09-24T11:13:14.397Z,8.56
2022-09-24T11:14:14.407Z,8.68
2022-09-24T11:15:14.424Z,8.65
2022-09-24T11:16:14.568Z,8.80
2022-09-24T11:17:14.444Z,8.91
2022-09-24T11:18:14.463Z,8.94
2022-09-24T11:19:14.466Z,9.05
2022-09-24T11:20:14.473Z,9.28
2022-09-24T11:21:14.485Z,9.24
2022-09-24T11:22:14.498Z,9.26
2022-09-24T11:23:14.507Z,9.05
2022-09-24T11:24:14.629Z,8.86
2022-09-24T11:25:14.536Z,8.73
2022-09-24T11:26:14.547Z,8.68
2022-09-24T11:27:14.552Z,8.89
2022-09-24T11:28:14.560Z,8.98
2022-09-24T11:29:14.574Z,8.96
2022-09-24T11:30:14.588Z,9.02
2022-09-24T11:31:14.703Z,8.98
2022-09-24T11:32:14.605Z,9.21
2022-09-24T11:33:17.310Z,9.23
2022-09-24T11:34:14.629Z,9.15
2022-09-24T11:35:14.637Z,9.14
2022-09-24T11:36:14.654Z,9.01
2022-09-24T11:37:14.664Z,8.95
2022-09-24T11:38:14.669Z,8.89
2022-09-24T11:39:14.681Z,8.76
2022-09-24T11:40:14.768Z,8.87
2022-09-24T11:41:14.705Z,8.99
2022-09-24T11:42:14.723Z,9.02
2022-09-24T11:43:14.729Z,8.94
2022-09-24T11:44:14.735Z,8.68
2022-09-24T11:45:14.851Z,8.80
2022-09-24T11:46:14.834Z,8.71
2022-09-24T11:47:14.772Z,8.74
2022-09-24T11:48:14.784Z,8.80
2022-09-24T11:49:14.798Z,8.40
2022-09-24T11:50:14.808Z,8.37
2022-09-24T11:51:14.817Z,8.52
2022-09-24T11:52:14.825Z,8.58
2022-09-24T11:53:14.842Z,8.55
2022-09-24T11:54:14.851Z,8.65
2022-09-24T11:55:14.859Z,8.74
2022-09-24T11:56:14.902Z,8.86
2022-09-24T11:57:14.883Z,9.04
2022-09-24T11:58:14.895Z,9.14
2022-09-24T11:59:14.913Z,9.26
2022-09-24T12:00:15.020Z,9.36
2022-09-24T12:01:14.932Z,9.56
2022-09-24T12:02:15.007Z,9.26
2022-09-24T12:03:15.077Z,9.23
2022-09-24T12:04:14.959Z,9.20
2022-09-24T12:05:14.974Z,9.13
2022-09-24T12:06:14.980Z,9.15
2022-09-24T12:07:14.992Z,9.40
2022-09-24T12:08:15.021Z,9.10
2022-09-24T12:09:15.017Z,9.13
2022-09-24T12:10:15.031Z,9.18
2022-09-24T12:11:15.038Z,9.20
2022-09-24T12:12:15.077Z,9.24
2022-09-24T12:13:15.064Z,9.39
2022-09-24T12:14:15.087Z,9.36
2022-09-24T12:15:15.088Z,9.40
2022-09-24T12:16:15.238Z,9.17
2022-09-24T12:17:15.109Z,8.80
2022-09-24T12:18:15.117Z,8.80
2022-09-24T12:19:15.132Z,8.77
2022-09-24T12:20:15.141Z,8.61
2022-09-24T12:21:15.161Z,8.43
2022-09-24T12:22:15.165Z,8.26
2022-09-24T12:23:15.176Z,8.23
2022-09-24T12:24:15.418Z,8.19
2022-09-24T12:25:15.252Z,8.20
2022-09-24T12:26:15.215Z,8.23
2022-09-24T12:27:15.214Z,8.41
2022-09-24T12:28:15.256Z,8.37
2022-09-24T12:29:15.244Z,8.37
2022-09-24T12:30:15.248Z,8.34
2022-09-24T12:31:15.435Z,8.28
2022-09-24T12:32:15.275Z,8.29
2022-09-24T12:33:15.283Z,8.41
2022-09-24T12:34:15.298Z,8.33
2022-09-24T12:35:15.304Z,8.25
2022-09-24T12:36:15.325Z,8.38
2022-09-24T12:37:15.326Z,8.48
2022-09-24T12:38:15.343Z,8.48
2022-09-24T12:39:15.349Z,8.55
2022-09-24T12:40:15.442Z,8.73
2022-09-24T12:41:15.524Z,8.74
2022-09-24T12:42:15.387Z,8.99
2022-09-24T12:43:15.395Z,9.21
2022-09-24T12:44:21.100Z,9.26
2022-09-24T12:45:15.418Z,9.39
2022-09-24T12:46:15.481Z,9.38
2022-09-24T12:47:15.437Z,9.21
2022-09-24T12:48:15.465Z,9.29
2022-09-24T12:49:15.457Z,9.18
2022-09-24T12:50:15.471Z,8.99
2022-09-24T12:51:15.478Z,8.94
2022-09-24T12:52:15.492Z,8.98
2022-09-24T12:53:15.505Z,8.99
2022-09-24T12:54:15.520Z,9.02
2022-09-24T12:55:15.526Z,9.17
2022-09-24T12:56:15.540Z,9.26
2022-09-24T12:57:15.547Z,9.21
2022-09-24T12:58:15.562Z,9.35
2022-09-24T12:59:15.569Z,9.39
2022-09-24T13:00:15.605Z,9.56
2022-09-24T13:01:15.674Z,9.65
2022-09-24T13:02:15.725Z,9.65
2022-09-24T13:03:15.690Z,9.76
2022-09-24T13:04:15.626Z,9.96
2022-09-24T13:05:15.637Z,10.05
2022-09-24T13:06:15.656Z,10.15
2022-09-24T13:07:15.662Z,9.90
2022-09-24T13:08:15.671Z,9.61
2022-09-24T13:09:15.683Z,9.42
2022-09-24T13:10:15.697Z,9.39
2022-09-24T13:11:15.708Z,9.31
2022-09-24T13:12:15.714Z,9.13
2022-09-24T13:13:15.728Z,9.21
2022-09-24T13:14:15.738Z,9.05